createdAt,value
2019-03-28T00:01:18.432Z,8.10
2019-03-28T00:03:48.379Z,8.20
2019-03-28T00:06:18.347Z,8.20
2019-03-28T00:08:48.315Z,8.10
2019-03-28T00:11:18.262Z,8.10
2019-03-28T00:13:48.235Z,8.10
2019-03-28T00:16:19.267Z,8.10
2019-03-28T00:18:49.230Z,8.10
2019-03-28T00:21:19.175Z,8.20
2019-03-28T00:24:07.279Z,8.10
2019-03-28T00:26:37.318Z,8.20
2019-03-28T00:29:07.276Z,8.10
2019-03-28T00:31:37.242Z,8.10
2019-03-28T00:34:07.195Z,8.20
2019-03-28T00:36:37.183Z,8.10
2019-03-28T00:39:08.022Z,8.10
2019-03-28T00:41:37.992Z,8.10
2019-03-28T00:44:07.967Z,8.20
2019-03-28T00:46:37.914Z,8.10
2019-03-28T00:49:07.889Z,8.20
2019-03-28T00:51:37.840Z,8.20
2019-03-28T00:54:07.813Z,8.20
2019-03-28T00:56:46.372Z,8.30
2019-03-28T00:59:09.361Z,8.20
2019-03-28T01:01:39.302Z,8.20
2019-03-28T01:04:09.270Z,8.10
2019-03-28T01:06:39.224Z,8.20
2019-03-28T01:09:09.631Z,8.30
2019-03-28T01:11:40.659Z,8.20
2019-03-28T01:14:10.636Z,8.20
2019-03-28T01:16:40.592Z,8.20
2019-03-28T01:19:10.562Z,8.10
2019-03-28T01:21:41.192Z,8.10
2019-03-28T01:24:11.378Z,8.10
2019-03-28T01:26:41.334Z,8.20
2019-03-28T01:29:11.311Z,8.10
2019-03-28T01:31:41.262Z,8.10
2019-03-28T01:34:11.240Z,8.10
2019-03-28T01:36:41.187Z,7.90
2019-03-28T01:39:11.154Z,7.90
2019-03-28T01:41:41.189Z,7.90
2019-03-28T01:44:11.173Z,7.80
2019-03-28T01:46:41.127Z,7.70
2019-03-28T01:49:11.110Z,7.70
2019-03-28T01:51:41.055Z,7.60
2019-03-28T01:54:11.022Z,7.60
2019-03-28T01:56:40.971Z,7.60
2019-03-28T01:59:10.942Z,7.50
2019-03-28T02:01:40.920Z,7.50
2019-03-28T02:04:10.901Z,7.50
2019-03-28T02:06:40.847Z,7.50
2019-03-28T02:09:11.906Z,7.50
2019-03-28T02:11:41.852Z,7.50
2019-03-28T02:14:12.365Z,7.50
2019-03-28T02:16:42.382Z,7.50
2019-03-28T02:19:12.350Z,7.50
2019-03-28T02:21:42.380Z,7.50
2019-03-28T02:24:12.351Z,7.50
2019-03-28T02:26:42.298Z,7.40
2019-03-28T02:29:12.275Z,7.40
2019-03-28T02:31:42.914Z,7.40
2019-03-28T02:34:14.378Z,7.40
2019-03-28T02:36:44.319Z,7.40
2019-03-28T02:39:14.291Z,7.40
2019-03-28T02:41:44.254Z,7.50
2019-03-28T02:44:14.311Z,7.50
2019-03-28T02:46:44.234Z,7.40
2019-03-28T02:49:14.216Z,7.40
2019-03-28T02:51:44.164Z,7.40
2019-03-28T02:54:14.306Z,7.40
2019-03-28T02:56:44.251Z,7.30
2019-03-28T02:59:14.237Z,7.40
2019-03-28T03:01:44.203Z,7.40
2019-03-28T03:04:14.162Z,7.40
2019-03-28T03:06:44.111Z,7.40
2019-03-28T03:09:14.203Z,7.40
2019-03-28T03:11:44.173Z,7.40
2019-03-28T03:14:14.123Z,7.40
2019-03-28T03:16:44.075Z,7.40
2019-03-28T03:19:15.125Z,7.40
2019-03-28T03:21:45.071Z,7.40
2019-03-28T03:24:15.044Z,7.40
2019-03-28T03:26:44.990Z,7.40
2019-03-28T03:29:14.964Z,7.30
2019-03-28T03:31:44.985Z,7.40
2019-03-28T03:34:14.964Z,7.40
2019-03-28T03:36:44.899Z,7.30
2019-03-28T03:39:14.871Z,7.40
2019-03-28T03:41:45.084Z,7.30
2019-03-28T03:44:16.067Z,7.30
2019-03-28T03:46:46.171Z,7.30
2019-03-28T03:49:16.163Z,7.30
2019-03-28T03:51:46.639Z,7.30
2019-03-28T03:54:17.760Z,7.30
2019-03-28T03:56:47.726Z,7.30
2019-03-28T03:59:17.697Z,7.40
2019-03-28T04:01:47.637Z,7.40
2019-03-28T04:04:17.606Z,7.30
2019-03-28T04:06:47.702Z,7.30
2019-03-28T04:09:17.744Z,7.30
2019-03-28T04:11:47.709Z,7.30
2019-03-28T04:14:17.683Z,7.20
2019-03-28T04:16:47.799Z,7.30
2019-03-28T04:19:17.772Z,7.30
2019-03-28T04:21:47.741Z,7.30
2019-03-28T04:24:17.700Z,7.30
2019-03-28T04:26:47.666Z,7.30
2019-03-28T04:29:17.695Z,7.30
2019-03-28T04:31:47.643Z,7.30
2019-03-28T04:34:17.619Z,7.30
2019-03-28T04:36:47.571Z,7.30
2019-03-28T04:39:17.548Z,7.30
2019-03-28T04:41:47.500Z,7.30
2019-03-28T04:44:17.489Z,7.30
2019-03-28T04:46:47.434Z,7.30
2019-03-28T04:49:18.546Z,7.30
2019-03-28T04:51:49.163Z,7.30
2019-03-28T04:54:19.138Z,7.30
2019-03-28T04:56:49.086Z,7.30
2019-03-28T04:59:19.050Z,7.40
2019-03-28T05:02:00.835Z,7.30
2019-03-28T05:04:21.192Z,7.40
2019-03-28T05:06:52.319Z,7.30
2019-03-28T05:09:22.282Z,7.30
2019-03-28T05:11:52.229Z,7.30
2019-03-28T05:14:22.198Z,7.30
2019-03-28T05:16:52.151Z,7.30
2019-03-28T05:19:22.143Z,7.30
2019-03-28T05:21:52.067Z,7.40
2019-03-28T05:24:25.212Z,7.40
2019-03-28T05:26:53.606Z,7.40
2019-03-28T05:29:23.579Z,7.40
2019-03-28T05:31:53.529Z,7.40
2019-03-28T05:34:23.506Z,7.30
2019-03-28T05:36:53.526Z,7.30
2019-03-28T05:39:23.495Z,7.40
2019-03-28T05:41:53.442Z,7.40
2019-03-28T05:44:23.410Z,7.40
2019-03-28T05:46:53.357Z,7.50
2019-03-28T05:49:23.331Z,7.50
2019-03-28T05:51:53.281Z,7.50
2019-03-28T05:54:23.254Z,7.50
2019-03-28T05:56:53.202Z,7.50
2019-03-28T05:59:23.175Z,7.50
2019-03-28T06:01:53.122Z,7.50
2019-03-28T06:04:23.089Z,7.50
2019-03-28T06:06:53.038Z,7.50
2019-03-28T06:09:23.015Z,7.50
2019-03-28T06:11:53.119Z,7.50
2019-03-28T06:14:24.201Z,7.60
2019-03-28T06:16:54.150Z,7.60
2019-03-28T06:19:24.113Z,7.60
2019-03-28T06:21:54.063Z,7.60
2019-03-28T06:24:24.039Z,7.60
2019-03-28T06:26:53.988Z,7.60
2019-03-28T06:29:25.273Z,7.60
2019-03-28T06:31:55.917Z,7.60
2019-03-28T06:34:26.442Z,7.60
2019-03-28T06:36:56.543Z,7.70
2019-03-28T06:39:26.490Z,7.70
2019-03-28T06:41:56.575Z,7.70
2019-03-28T06:44:26.522Z,7.70
2019-03-28T06:46:56.495Z,7.70
2019-03-28T06:49:26.441Z,7.70
2019-03-28T06:51:56.410Z,7.70
2019-03-28T06:54:26.362Z,7.70
2019-03-28T06:56:56.345Z,7.80
2019-03-28T06:59:36.588Z,7.80
2019-03-28T07:01:57.865Z,7.80
2019-03-28T07:04:27.815Z,7.80
2019-03-28T07:06:57.791Z,7.80
2019-03-28T07:09:27.731Z,7.80
2019-03-28T07:11:57.701Z,7.90
2019-03-28T07:14:28.244Z,7.90
2019-03-28T07:16:58.323Z,7.90
2019-03-28T07:19:28.270Z,7.90
2019-03-28T07:21:58.244Z,7.90
2019-03-28T07:24:28.190Z,7.90
2019-03-28T07:26:58.157Z,8.00
2019-03-28T07:29:28.115Z,8.00
2019-03-28T07:31:58.098Z,8.00
2019-03-28T07:34:28.043Z,8.00
2019-03-28T07:36:58.019Z,8.10
2019-03-28T07:39:27.966Z,8.00
2019-03-28T07:41:58.122Z,8.10
2019-03-28T07:44:30.563Z,8.10
2019-03-28T07:47:03.667Z,8.10
2019-03-28T07:49:37.626Z,8.10
2019-03-28T07:52:07.550Z,8.20
2019-03-28T07:54:37.499Z,8.10
2019-03-28T07:57:07.467Z,8.20
2019-03-28T07:59:37.420Z,8.20
2019-03-28T08:02:07.491Z,8.20
2019-03-28T08:04:37.474Z,8.20
2019-03-28T08:07:07.446Z,8.30
2019-03-28T08:09:37.399Z,8.30
2019-03-28T08:12:21.376Z,8.30
2019-03-28T08:14:38.931Z,8.30
2019-03-28T08:17:08.898Z,8.40
2019-03-28T08:19:41.489Z,8.40
2019-03-28T08:22:10.507Z,8.30
2019-03-28T08:24:40.627Z,8.40
2019-03-28T08:27:10.597Z,8.40
2019-03-28T08:29:40.547Z,8.40
2019-03-28T08:32:13.599Z,8.40
2019-03-28T08:34:44.650Z,8.40
2019-03-28T08:37:15.900Z,8.50
2019-03-28T08:39:46.223Z,8.40
2019-03-28T08:42:16.194Z,8.50
2019-03-28T08:44:46.142Z,8.50
2019-03-28T08:47:16.121Z,8.50
2019-03-28T08:49:46.134Z,8.50
2019-03-28T08:52:16.141Z,8.40
2019-03-28T08:54:46.088Z,8.40
2019-03-28T08:57:16.088Z,8.40
2019-03-28T08:59:46.035Z,8.50
2019-03-28T09:02:16.002Z,8.50
2019-03-28T09:04:45.951Z,8.50
2019-03-28T09:07:17.404Z,8.50
2019-03-28T09:09:47.575Z,8.60
2019-03-28T09:12:17.715Z,8.50
2019-03-28T09:14:47.683Z,8.60
2019-03-28T09:17:17.655Z,8.60
2019-03-28T09:19:47.770Z,8.70
2019-03-28T09:22:17.896Z,8.70
2019-03-28T09:24:47.879Z,8.60
2019-03-28T09:27:18.099Z,8.70
2019-03-28T09:29:48.220Z,8.70
2019-03-28T09:32:18.266Z,8.70
2019-03-28T09:34:48.214Z,8.60
2019-03-28T09:37:18.988Z,8.60
2019-03-28T09:39:48.930Z,8.60
2019-03-28T09:42:18.968Z,8.60
2019-03-28T09:44:48.914Z,8.70
2019-03-28T09:47:18.888Z,8.70
2019-03-28T09:49:48.978Z,8.70
2019-03-28T09:52:18.975Z,8.80
2019-03-28T09:54:48.922Z,8.80
2019-03-28T09:57:18.894Z,8.80
2019-03-28T09:59:48.983Z,8.80
2019-03-28T10:02:19.602Z,8.80
2019-03-28T10:04:49.595Z,8.80
2019-03-28T10:07:20.549Z,8.80
2019-03-28T10:09:50.774Z,8.80
2019-03-28T10:12:20.791Z,8.90
2019-03-28T10:14:50.897Z,8.80
2019-03-28T10:17:20.867Z,8.90
2019-03-28T10:19:51.784Z,8.90
2019-03-28T10:22:22.471Z,9.00
2019-03-28T10:24:52.506Z,9.00
2019-03-28T10:27:22.480Z,9.10
2019-03-28T10:29:52.427Z,9.10
2019-03-28T10:32:22.786Z,9.10
2019-03-28T10:34:52.735Z,9.10
2019-03-28T10:37:23.822Z,9.10
2019-03-28T10:39:53.887Z,9.20
2019-03-28T10:42:23.855Z,9.20
2019-03-28T10:44:54.565Z,9.20
2019-03-28T10:47:24.816Z,9.20
2019-03-28T10:49:54.758Z,9.20
2019-03-28T10:52:24.726Z,9.20
2019-03-28T10:54:54.671Z,9.30
2019-03-28T10:57:29.882Z,9.30
2019-03-28T10:59:56.762Z,9.40
2019-03-28T11:02:28.750Z,9.40
2019-03-28T11:04:58.294Z,9.40
2019-03-28T11:07:28.440Z,9.30
2019-03-28T11:09:58.426Z,9.30
2019-03-28T11:12:28.405Z,9.20
2019-03-28T11:14:58.350Z,9.30
2019-03-28T11:17:28.320Z,9.20
2019-03-28T11:19:58.327Z,9.30
2019-03-28T11:22:28.387Z,9.30
2019-03-28T11:24:58.406Z,9.20
2019-03-28T11:27:28.381Z,9.20
2019-03-28T11:29:59.494Z,9.20
2019-03-28T11:32:29.466Z,9.20
2019-03-28T11:34:59.414Z,9.10
2019-03-28T11:37:29.382Z,9.20
2019-03-28T11:39:59.491Z,9.20
2019-03-28T11:42:29.459Z,9.20
2019-03-28T11:45:00.478Z,9.20
2019-03-28T11:47:30.446Z,9.20
2019-03-28T11:50:00.390Z,9.20
2019-03-28T11:52:30.354Z,9.20
2019-03-28T11:55:00.315Z,9.20
2019-03-28T11:57:30.282Z,9.20
2019-03-28T12:00:00.906Z,9.20
2019-03-28T12:02:31.680Z,9.20
2019-03-28T12:05:01.628Z,9.20
2019-03-28T12:07:31.671Z,9.20
2019-03-28T12:10:01.622Z,9.20
2019-03-28T12:12:31.588Z,9.30
2019-03-28T12:15:01.541Z,9.30
2019-03-28T12:17:31.502Z,9.30
2019-03-28T12:20:01.517Z,9.30
2019-03-28T12:22:31.490Z,9.30
2019-03-28T12:25:01.438Z,9.40
2019-03-28T12:27:31.410Z,9.30
2019-03-28T12:30:02.307Z,9.30
2019-03-28T12:32:32.279Z,9.30
2019-03-28T12:35:02.287Z,9.30
2019-03-28T12:37:32.295Z,9.30
2019-03-28T12:40:02.249Z,9.40
2019-03-28T12:42:32.215Z,9.40
2019-03-28T12:45:02.164Z,9.40
2019-03-28T12:47:42.159Z,9.30
2019-03-28T12:50:05.942Z,9.30
2019-03-28T12:52:36.085Z,9.30
2019-03-28T12:55:07.875Z,9.20
2019-03-28T12:57:37.847Z,9.20
2019-03-28T13:00:09.934Z,9.20
2019-03-28T13:02:40.278Z,9.20
2019-03-28T13:05:10.855Z,9.30
2019-03-28T13:07:40.918Z,9.30
2019-03-28T13:10:11.906Z,9.40
2019-03-28T13:12:41.874Z,9.40
2019-03-28T13:15:12.064Z,9.50
2019-03-28T13:17:42.029Z,9.50
2019-03-28T13:20:12.221Z,9.50
2019-03-28T13:22:42.193Z,9.50
2019-03-28T13:25:12.138Z,9.50
2019-03-28T13:27:42.114Z,9.50
2019-03-28T13:30:13.998Z,9.50
2019-03-28T13:32:43.973Z,9.40
2019-03-28T13:35:13.990Z,9.40
2019-03-28T13:37:43.977Z,9.40
2019-03-28T13:40:14.162Z,9.40
2019-03-28T13:42:44.138Z,9.40
2019-03-28T13:45:15.847Z,9.40
2019-03-28T13:47:45.811Z,9.40
2019-03-28T13:50:16.418Z,9.30
2019-03-28T13:52:46.367Z,9.30
2019-03-28T13:55:16.359Z,9.40
2019-03-28T13:57:46.338Z,9.50
2019-03-28T14:00:18.191Z,9.40
2019-03-28T14:02:57.045Z,9.40
2019-03-28T14:05:19.735Z,9.50
2019-03-28T14:07:50.655Z,9.50
2019-03-28T14:10:21.917Z,9.50
2019-03-28T14:12:52.061Z,9.40
2019-03-28T14:15:22.130Z,9.40
2019-03-28T14:17:52.074Z,9.40
2019-03-28T14:20:22.469Z,9.40
2019-03-28T14:22:52.783Z,9.40
2019-03-28T14:25:22.747Z,9.30
2019-03-28T14:27:52.764Z,9.30
2019-03-28T14:30:22.730Z,9.20
2019-03-28T14:32:53.865Z,9.20
2019-03-28T14:35:23.998Z,9.20
2019-03-28T14:37:53.903Z,9.30
2019-03-28T14:40:23.874Z,9.20
2019-03-28T14:42:53.823Z,9.20
2019-03-28T14:45:23.890Z,9.20
2019-03-28T14:47:53.830Z,9.30
2019-03-28T14:50:37.691Z,9.30
2019-03-28T14:53:07.634Z,9.30
2019-03-28T14:55:37.751Z,9.30
2019-03-28T14:58:07.884Z,9.30
2019-03-28T15:00:46.972Z,9.40
2019-03-28T15:03:26.278Z,9.40
2019-03-28T15:05:49.715Z,9.40
2019-03-28T15:08:19.954Z,9.40
2019-03-28T15:10:49.921Z,9.40
2019-03-28T15:13:19.943Z,9.40
2019-03-28T15:15:49.923Z,9.30
2019-03-28T15:18:19.875Z,9.30
2019-03-28T15:20:49.938Z,9.40
2019-03-28T15:23:19.885Z,9.40
2019-03-28T15:25:49.858Z,9.40
2019-03-28T15:28:19.807Z,9.40
2019-03-28T15:30:49.854Z,9.40
2019-03-28T15:33:19.795Z,9.50
2019-03-28T15:35:49.770Z,9.50
2019-03-28T15:38:19.711Z,9.40
2019-03-28T15:40:49.751Z,9.50
2019-03-28T15:43:19.727Z,9.40
2019-03-28T15:45:49.698Z,9.40
2019-03-28T15:48:19.647Z,9.40
2019-03-28T15:50:49.618Z,9.50
2019-03-28T15:53:19.639Z,9.40
2019-03-28T15:55:49.607Z,9.40
2019-03-28T15:58:23.601Z,9.40
2019-03-28T16:00:51.250Z,9.40
2019-03-28T16:03:21.275Z,9.40
2019-03-28T16:05:58.232Z,9.50
2019-03-28T16:08:22.814Z,9.50
2019-03-28T16:10:52.787Z,9.50
2019-03-28T16:13:22.922Z,9.40
2019-03-28T16:15:53.978Z,9.40
2019-03-28T16:18:23.922Z,9.40
2019-03-28T16:20:53.900Z,9.40
2019-03-28T16:23:23.843Z,9.40
2019-03-28T16:25:53.811Z,9.40
2019-03-28T16:28:23.759Z,9.30
2019-03-28T16:30:53.725Z,9.30
2019-03-28T16:33:23.673Z,9.40
2019-03-28T16:35:53.656Z,9.40
2019-03-28T16:38:23.667Z,9.30
2019-03-28T16:40:53.642Z,9.30
2019-03-28T16:43:25.791Z,9.40
2019-03-28T16:45:55.187Z,9.40
2019-03-28T16:48:25.136Z,9.40
2019-03-28T16:50:55.194Z,9.30
2019-03-28T16:53:25.147Z,9.30
2019-03-28T16:55:55.114Z,9.30
2019-03-28T16:58:25.068Z,9.40
2019-03-28T17:00:55.049Z,9.40
2019-03-28T17:03:25.009Z,9.40
2019-03-28T17:05:54.974Z,9.30
2019-03-28T17:08:26.662Z,9.30
2019-03-28T17:10:57.518Z,9.40
2019-03-28T17:13:27.588Z,9.40
2019-03-28T17:15:57.555Z,9.40
2019-03-28T17:18:27.497Z,9.40
2019-03-28T17:20:57.467Z,9.40
2019-03-28T17:23:27.903Z,9.30
2019-03-28T17:25:58.256Z,9.30
2019-03-28T17:28:28.207Z,9.40
2019-03-28T17:30:58.179Z,9.80
2019-03-28T17:33:28.140Z,9.70
2019-03-28T17:35:58.110Z,9.60
2019-03-28T17:38:28.126Z,9.50
2019-03-28T17:40:58.094Z,9.40
2019-03-28T17:43:28.042Z,9.40
2019-03-28T17:45:58.014Z,9.40
2019-03-28T17:48:28.691Z,9.40
2019-03-28T17:50:58.831Z,9.40
2019-03-28T17:53:28.779Z,9.40
2019-03-28T17:55:58.757Z,9.30
2019-03-28T17:58:28.702Z,9.40
2019-03-28T18:00:58.671Z,9.30
2019-03-28T18:03:31.504Z,9.30
2019-03-28T18:06:00.205Z,9.30
2019-03-28T18:08:30.154Z,9.30
2019-03-28T18:11:00.479Z,9.20
2019-03-28T18:13:31.242Z,9.20
2019-03-28T18:16:01.491Z,9.30
2019-03-28T18:18:31.442Z,9.20
2019-03-28T18:21:01.412Z,9.20
2019-03-28T18:23:31.455Z,9.30
2019-03-28T18:26:01.427Z,9.20
2019-03-28T18:28:31.787Z,9.20
2019-03-28T18:31:01.817Z,9.30
2019-03-28T18:33:31.780Z,9.30
2019-03-28T18:36:01.749Z,9.20
2019-03-28T18:38:31.730Z,9.20
2019-03-28T18:41:01.711Z,9.20
2019-03-28T18:43:31.730Z,9.20
2019-03-28T18:46:01.750Z,9.20
2019-03-28T18:48:36.042Z,9.20
2019-03-28T18:51:03.332Z,9.10
2019-03-28T18:53:33.376Z,9.20
2019-03-28T18:56:03.458Z,9.20
2019-03-28T18:58:33.411Z,9.20
2019-03-28T19:01:03.377Z,9.20
2019-03-28T19:03:33.322Z,9.20
2019-03-28T19:06:03.293Z,9.10
2019-03-28T19:08:33.245Z,9.10
2019-03-28T19:11:03.994Z,9.10
2019-03-28T19:13:35.308Z,9.10
2019-03-28T19:16:05.344Z,9.10
2019-03-28T19:18:35.329Z,9.10
2019-03-28T19:21:06.442Z,9.00
2019-03-28T19:23:36.899Z,9.00
2019-03-28T19:26:06.871Z,9.00
2019-03-28T19:28:36.824Z,9.00
2019-03-28T19:31:06.886Z,9.00
2019-03-28T19:33:38.200Z,9.00
2019-03-28T19:36:09.739Z,9.00
2019-03-28T19:38:39.687Z,9.00
2019-03-28T19:41:09.822Z,9.00
2019-03-28T19:43:39.842Z,9.00
2019-03-28T19:46:09.815Z,8.90
2019-03-28T19:48:39.762Z,8.90
2019-03-28T19:51:09.734Z,8.90
2019-03-28T19:53:39.683Z,8.90
2019-03-28T19:56:09.656Z,8.90
2019-03-28T19:58:40.671Z,8.90
2019-03-28T20:01:10.640Z,8.90
2019-03-28T20:03:40.586Z,9.00
2019-03-28T20:06:21.539Z,9.00
2019-03-28T20:08:42.239Z,9.00
2019-03-28T20:11:12.233Z,8.90
2019-03-28T20:13:42.162Z,8.90
2019-03-28T20:16:12.131Z,8.90
2019-03-28T20:18:43.132Z,8.90
2019-03-28T20:21:13.282Z,8.90
2019-03-28T20:23:44.397Z,8.90
2019-03-28T20:26:14.738Z,8.90
2019-03-28T20:28:44.943Z,8.90
2019-03-28T20:31:14.914Z,8.90
2019-03-28T20:33:44.859Z,8.90
2019-03-28T20:36:36.147Z,8.90
2019-03-28T20:38:49.954Z,8.80
2019-03-28T20:41:18.158Z,8.80
2019-03-28T20:43:48.111Z,8.90
2019-03-28T20:46:20.499Z,8.90
2019-03-28T20:48:49.652Z,9.00
2019-03-28T20:51:20.662Z,8.90
2019-03-28T20:53:50.606Z,8.90
2019-03-28T20:56:20.578Z,8.90
2019-03-28T20:58:50.518Z,8.90
2019-03-28T21:01:20.485Z,8.90
2019-03-28T21:03:50.434Z,8.90
2019-03-28T21:06:20.676Z,8.90
2019-03-28T21:08:50.623Z,8.80
2019-03-28T21:11:20.594Z,8.90
2019-03-28T21:13:50.543Z,8.90
2019-03-28T21:16:20.518Z,8.80
2019-03-28T21:18:50.462Z,8.90
2019-03-28T21:21:20.439Z,8.90
2019-03-28T21:23:50.384Z,8.90
2019-03-28T21:26:20.407Z,8.90
2019-03-28T21:28:51.135Z,8.90
2019-03-28T21:31:21.568Z,8.80
2019-03-28T21:33:54.673Z,8.80
2019-03-28T21:36:29.790Z,8.90
2019-03-28T21:38:54.670Z,8.90
2019-03-28T21:41:24.654Z,8.90
2019-03-28T21:43:54.603Z,9.00
2019-03-28T21:46:24.599Z,9.00
2019-03-28T21:48:54.548Z,9.10
2019-03-28T21:51:24.514Z,9.10
2019-03-28T21:53:54.492Z,9.10
2019-03-28T21:56:24.474Z,9.10
2019-03-28T21:58:55.411Z,9.10
2019-03-28T22:01:26.314Z,9.10
2019-03-28T22:03:56.282Z,9.10
2019-03-28T22:06:26.235Z,8.90
2019-03-28T22:08:56.198Z,8.90
2019-03-28T22:11:26.146Z,8.80
2019-03-28T22:13:57.183Z,8.90
2019-03-28T22:16:27.129Z,8.80
2019-03-28T22:18:57.097Z,8.80
2019-03-28T22:21:27.541Z,8.80
2019-03-28T22:23:57.622Z,8.80
2019-03-28T22:26:27.583Z,8.90
2019-03-28T22:28:57.558Z,8.90
2019-03-28T22:31:27.505Z,8.80
2019-03-28T22:33:58.543Z,8.80
2019-03-28T22:36:28.490Z,8.90
2019-03-28T22:38:58.457Z,8.90
2019-03-28T22:41:28.518Z,8.90
2019-03-28T22:43:58.942Z,8.90
2019-03-28T22:46:29.042Z,8.80
2019-03-28T22:48:59.010Z,8.80
2019-03-28T22:51:31.583Z,8.80
2019-03-28T22:54:00.552Z,8.80
2019-03-28T22:56:30.499Z,8.80
2019-03-28T22:59:00.980Z,8.80
2019-03-28T23:01:30.913Z,8.80
2019-03-28T23:04:00.900Z,8.90
2019-03-28T23:06:30.837Z,8.90
2019-03-28T23:09:00.818Z,8.90
2019-03-28T23:11:32.535Z,9.00
2019-03-28T23:14:02.578Z,9.00
2019-03-28T23:16:32.521Z,9.00
2019-03-28T23:19:02.494Z,9.00
2019-03-28T23:21:32.446Z,9.00
2019-03-28T23:24:02.483Z,9.00
2019-03-28T23:26:32.427Z,9.00
2019-03-28T23:29:02.398Z,8.90
2019-03-28T23:31:32.338Z,9.00
2019-03-28T23:34:02.306Z,9.00
2019-03-28T23:36:32.858Z,8.90
2019-03-28T23:39:03.459Z,9.00
2019-03-28T23:41:34.873Z,8.90
2019-03-28T23:44:04.845Z,9.00
2019-03-28T23:46:35.762Z,9.00
2019-03-28T23:49:05.724Z,9.00
2019-03-28T23:51:35.674Z,9.00
2019-03-28T23:54:05.634Z,9.00
2019-03-28T23:56:36.896Z,9.00
2019-03-28T23:59:10.385Z,9.00
